Time;durP1;ratioP1;P1;durP2;ratioP2;P2;SDS_P1;SDS_P2;PMS_P1;PMS_P2;Temp;Humidity;BMP_temperature;BMP_pressure;BME280_temperature;BME280_humidity;BME280_pressure;Samples;Min_cycle;Max_cycle;Signal;HPM_P1;HPM_P2
2021/01/12 00:04:02;;;;;;;80.97;33.75;;;;;;;0.97;87.77;99409.27;1703944;78;22113;-91
2021/01/12 00:06:30;;;;;;;83.50;33.78;;;;;;;1.01;87.85;99406.34;1689031;85;21308;-87
2021/01/12 00:08:58;;;;;;;80.87;34.73;;;;;;;0.99;87.42;99407.20;1697429;85;21748;-87
2021/01/12 00:11:26;;;;;;;78.15;33.95;;;;;;;0.97;87.76;99413.96;1697029;85;21182;-90
2021/01/12 00:13:54;;;;;;;81.67;35.65;;;;;;;0.97;87.79;99406.28;1678377;85;21251;-85
2021/01/12 00:19:17;;;;;;;74.92;30.02;;;;;;;0.99;87.77;99397.35;1729788;80;21169;-82
2021/01/12 00:21:48;;;;;;;76.57;29.42;;;;;;;0.98;87.45;99397.78;1743265;79;21643;31
2021/01/12 00:24:16;;;;;;;75.22;31.05;;;;;;;0.98;87.25;99393.94;1726482;80;21232;-83
2021/01/12 00:26:59;;;;;;;74.32;28.92;;;;;;;0.97;87.45;99388.78;1757650;78;21235;31
2021/01/12 00:41:58;;;;;;;78.42;33.18;;;;;;;1.04;88.34;99379.53;1779144;78;21160;-84
2021/01/12 00:44:26;;;;;;;81.67;33.48;;;;;;;1.08;87.74;99372.34;1769149;80;21299;-83
2021/01/12 00:46:58;;;;;;;85.42;33.48;;;;;;;1.05;88.16;99379.97;1769000;80;21160;-84
2021/01/12 00:49:26;;;;;;;80.12;33.42;;;;;;;1.05;88.46;99376.13;1781478;79;21151;-85
2021/01/12 00:51:54;;;;;;;77.00;32.85;;;;;;;1.03;88.18;99374.81;1802580;79;21279;-86
2021/01/12 00:54:24;;;;;;;78.67;29.63;;;;;;;1.03;88.25;99383.77;1798071;79;21276;-85
2021/01/12 00:57:18;;;;;;;70.42;28.20;;;;;;;1.05;88.14;99383.80;1767476;78;22625;31
2021/01/12 01:03:03;;;;;;;80.72;31.73;;;;;;;1.07;88.12;99384.70;1747901;80;21244;31
2021/01/12 01:05:38;;;;;;;83.87;32.73;;;;;;;1.07;87.80;99384.70;1764179;77;22555;31
2021/01/12 01:08:16;;;;;;;78.55;30.60;;;;;;;1.04;87.91;99384.66;1733276;78;21566;31
2021/01/12 01:16:47;;;;;;;;;;;;;;;1.08;87.84;99382.59;1742676;79;21300;31
2021/01/12 01:19:31;;;;;;;68.02;28.32;;;;;;;1.10;87.85;99383.48;1742890;78;20336;31
2021/01/12 01:25:11;;;;;;;79.30;31.37;;;;;;;1.17;88.01;99382.34;1769775;78;21117;-86
2021/01/12 01:27:39;;;;;;;69.27;29.87;;;;;;;1.19;87.96;99381.06;1765934;80;21184;-90
2021/01/12 01:30:08;;;;;;;70.35;31.27;;;;;;;1.21;87.83;99379.81;1727900;82;21177;-90
2021/01/12 01:32:36;;;;;;;73.15;30.85;;;;;;;1.20;87.76;99377.68;1757027;80;21116;-88
2021/01/12 01:35:06;;;;;;;64.90;28.10;;;;;;;1.15;87.68;99379.28;1762713;80;21228;-90
2021/01/12 01:37:36;;;;;;;70.15;28.62;;;;;;;1.12;87.00;99374.98;1692800;79;21311;-83
2021/01/12 01:46:29;;;;;;;67.22;28.65;;;;;;;1.07;88.07;99371.89;1736565;77;21139;31
2021/01/12 01:49:17;;;;;;;60.85;27.37;;;;;;;1.06;87.87;99364.63;1747515;80;22512;31
2021/01/12 01:51:47;;;;;;;61.68;26.30;;;;;;;1.08;87.82;99370.64;1751504;79;23071;-81
2021/01/12 02:03:34;;;;;;;71.87;30.02;;;;;;;1.10;87.95;99369.40;1730948;77;21205;-86
2021/01/12 02:09:48;;;;;;;65.10;27.00;;;;;;;1.12;87.87;99368.58;1713888;77;20148;-89
2021/01/12 02:15:24;;;;;;;74.50;30.65;;;;;;;1.14;87.41;99360.93;1729413;81;21149;-84
2021/01/12 02:17:53;;;;;;;66.60;29.10;;;;;;;1.13;87.29;99352.79;1731367;82;21166;-87
2021/01/12 02:20:24;;;;;;;64.03;26.20;;;;;;;1.13;87.56;99348.95;1715064;79;21256;-86
2021/01/12 02:23:16;;;;;;;61.77;26.95;;;;;;;1.14;87.48;99336.17;1716336;79;21307;31
2021/01/12 02:31:43;;;;;;;65.15;27.42;;;;;;;1.18;87.51;99327.70;1684777;80;21325;31
2021/01/12 02:37:02;;;;;;;72.32;27.55;;;;;;;1.22;87.49;99319.66;1760717;77;21294;31
2021/01/12 02:39:42;;;;;;;70.50;28.45;;;;;;;1.25;87.52;99308.59;1732659;78;21261;31
2021/01/12 02:42:15;;;;;;;73.05;30.40;;;;;;;1.23;87.39;99306.00;1644865;86;21299;-83
2021/01/12 02:44:47;;;;;;;77.80;30.70;;;;;;;1.23;87.28;99306.00;1646422;87;21920;-85
2021/01/12 02:47:15;;;;;;;78.22;31.75;;;;;;;1.24;87.41;99303.05;1660044;86;21188;-83
2021/01/12 02:49:43;;;;;;;70.12;28.92;;;;;;;1.26;87.05;99304.78;1674522;84;21310;-85
2021/01/12 02:52:14;;;;;;;74.85;30.60;;;;;;;1.18;87.37;99304.66;1648513;86;21308;-83
2021/01/12 02:54:42;;;;;;;74.20;29.10;;;;;;;1.17;87.52;99309.35;1683693;78;21322;-89
2021/01/12 02:57:10;;;;;;;74.72;27.02;;;;;;;1.14;87.92;99307.16;1678321;85;21315;-89
2021/01/12 02:59:39;;;;;;;69.58;24.12;;;;;;;1.12;87.52;99307.12;1714790;78;22078;-87
2021/01/12 03:05:36;;;;;;;81.05;27.22;;;;;;;1.06;87.78;99289.53;1737921;79;21482;31
2021/01/12 03:08:15;;;;;;;77.95;26.50;;;;;;;1.03;87.99;99288.19;1684506;81;21287;31
2021/01/12 03:10:57;;;;;;;76.93;26.37;;;;;;;1.04;87.85;99286.08;1712048;79;21281;31
2021/01/12 03:13:48;;;;;;;81.28;27.48;;;;;;;1.01;87.99;99286.02;1725750;78;22790;31
2021/01/12 03:16:33;;;;;;;85.37;27.37;;;;;;;1.03;87.99;99283.91;1723239;81;21323;31
2021/01/12 03:19:20;;;;;;;81.55;28.30;;;;;;;1.02;88.39;99278.80;1746574;80;21231;31
2021/01/12 03:21:55;;;;;;;76.60;27.93;;;;;;;1.04;88.26;99279.25;1749538;78;21165;31
2021/01/12 03:27:33;;;;;;;89.28;29.82;;;;;;;1.08;88.37;99272.06;1771301;79;21147;-81
2021/01/12 03:59:02;;;;;;;75.28;27.45;;;;;;;1.01;88.11;99248.47;1712723;80;22810;31
2021/01/12 04:04:40;;;;;;;75.85;29.48;;;;;;;1.02;87.73;99254.47;1706776;80;21185;-88
2021/01/12 04:07:08;;;;;;;71.60;29.15;;;;;;;0.98;88.02;99252.27;1706343;83;21196;-88
2021/01/12 04:09:36;;;;;;;81.22;30.57;;;;;;;0.97;88.06;99253.09;1700695;84;21271;-90
2021/01/12 04:12:04;;;;;;;76.15;29.90;;;;;;;0.82;88.21;99228.12;1708179;83;21299;-91
2021/01/12 04:14:32;;;;;;;67.92;26.60;;;;;;;0.99;87.90;99251.03;1689186;83;21174;-84
2021/01/12 04:17:17;;;;;;;63.23;25.57;;;;;;;1.01;87.90;99252.73;1723858;79;21201;31
2021/01/12 04:22:53;;;;;;;64.97;27.00;;;;;;;0.96;88.02;99247.13;1712673;80;21265;31
2021/01/12 04:25:38;;;;;;;70.50;27.32;;;;;;;0.97;88.21;99243.71;1748336;78;21195;31
2021/01/12 04:34:31;;;;;;;74.23;26.47;;;;;;;1.05;87.94;99236.16;1731298;80;22643;31
2021/01/12 04:37:09;;;;;;;71.65;27.07;;;;;;;1.08;87.86;99237.49;1731744;79;21171;31
2021/01/12 04:42:47;;;;;;;77.08;29.25;;;;;;;1.13;87.64;99230.72;1755814;80;21149;-90
2021/01/12 04:45:15;;;;;;;73.83;30.10;;;;;;;1.08;87.68;99225.97;1719477;82;21193;-90
2021/01/12 04:47:43;;;;;;;80.12;30.30;;;;;;;1.02;87.79;99222.47;1732185;82;21289;-91
2021/01/12 04:50:12;;;;;;;85.30;30.68;;;;;;;0.98;88.14;99223.69;1716783;82;21163;-91
2021/01/12 04:52:59;;;;;;;83.17;28.95;;;;;;;0.97;87.86;99215.98;1713187;81;21242;31
2021/01/12 04:55:41;;;;;;;86.60;28.80;;;;;;;0.95;87.98;99217.22;1747575;79;21294;31
2021/01/12 04:58:16;;;;;;;90.77;29.72;;;;;;;0.99;88.07;99216.86;1742692;80;21323;31
2021/01/12 05:00:54;;;;;;;87.03;31.27;;;;;;;1.01;87.56;99214.33;1745081;79;22552;31
2021/01/12 05:09:37;;;;;;;81.95;29.48;;;;;;;1.04;88.24;99213.97;1690113;81;21272;31
2021/01/12 05:12:18;;;;;;;80.62;28.17;;;;;;;1.01;88.14;99208.78;1694408;79;21181;31
2021/01/12 05:17:55;;;;;;;87.15;31.25;;;;;;;0.99;88.27;99201.50;1687782;80;21227;-85
2021/01/12 05:20:25;;;;;;;90.05;30.77;;;;;;;0.94;88.51;99201.44;1725294;83;21276;-90
2021/01/12 06:05:04;;;;;;;120.30;44.55;;;;;;;1.25;88.31;99168.58;1820455;77;28222;-84
2021/01/12 06:07:54;;;;;;;85.07;29.72;;;;;;;1.13;87.95;99169.70;1757960;77;21365;31
2021/01/12 06:10:43;;;;;;;79.17;28.67;;;;;;;0.99;88.25;99160.14;1759187;77;21336;31
2021/01/12 06:13:15;;;;;;;92.60;30.20;;;;;;;0.98;88.59;99152.43;1739828;80;21265;-82
2021/01/12 06:26:40;;;;;;;85.95;29.07;;;;;;;1.00;88.24;99160.99;1778803;77;22502;-83
2021/01/12 06:29:09;;;;;;;90.57;32.60;;;;;;;0.90;88.88;99167.67;1664373;84;21204;-86
2021/01/12 06:31:47;;;;;;;88.95;31.55;;;;;;;0.93;88.82;99175.38;1665264;84;21198;-88
2021/01/12 06:42:57;;;;;;;78.87;29.67;;;;;;;0.99;88.60;99166.94;1721331;79;21361;31
2021/01/12 06:48:32;;;;;;;97.42;32.15;;;;;;;1.03;88.71;99164.86;1661161;83;21160;-82
2021/01/12 06:51:01;;;;;;;80.55;30.43;;;;;;;1.06;88.43;99170.04;1673902;84;21174;-82
2021/01/12 06:53:29;;;;;;;86.35;29.90;;;;;;;1.08;88.20;99157.27;1701323;80;21152;-82
2021/01/12 07:02:30;;;;;;;73.05;28.47;;;;;;;1.32;88.26;99152.89;1704205;80;21203;-84
2021/01/12 07:05:12;;;;;;;78.37;29.67;;;;;;;1.36;87.54;99151.66;1672317;80;21504;-90
2021/01/12 07:07:50;;;;;;;74.32;27.98;;;;;;;1.33;87.35;99143.06;1708270;82;21317;-90
2021/01/12 07:10:22;;;;;;;75.90;29.60;;;;;;;1.30;87.12;99146.89;1674900;82;21278;-88
2021/01/12 07:12:52;;;;;;;78.00;29.98;;;;;;;1.24;87.29;99147.66;1706196;80;21331;-88
2021/01/12 07:15:48;;;;;;;83.47;29.00;;;;;;;1.32;87.11;99150.33;1802773;79;23096;-81
2021/01/12 07:18:23;;;;;;;69.30;24.23;;;;;;;1.26;87.11;99157.94;1778631;77;21262;-86
2021/01/12 07:31:50;;;;;;;79.07;26.73;;;;;;;1.50;87.41;99189.41;1779481;75;22745;-84
2021/01/12 07:37:39;;;;;;;88.62;33.10;;;;;;;1.57;87.39;99196.31;1784374;78;21132;-86
2021/01/12 07:40:13;;;;;;;89.87;33.80;;;;;;;1.63;87.02;99210.91;1803631;78;21141;-91
2021/01/12 07:42:54;;;;;;;101.00;38.58;;;;;;;1.69;87.21;99210.59;1826885;76;21174;-88
2021/01/12 07:45:26;;;;;;;95.57;35.35;;;;;;;1.70;86.86;99209.73;1770264;77;21912;-89
2021/01/12 07:47:59;;;;;;;72.80;29.90;;;;;;;1.73;86.88;99211.47;1747921;79;21307;-88
2021/01/12 07:50:30;;;;;;;70.92;29.57;;;;;;;1.70;86.45;99211.02;1742966;77;21336;-90
2021/01/12 07:52:59;;;;;;;77.97;28.70;;;;;;;1.65;86.36;99197.30;1746202;78;21137;-89
2021/01/12 07:55:27;;;;;;;80.05;26.93;;;;;;;1.55;86.04;99189.03;1770235;77;22328;-85
2021/01/12 07:57:57;;;;;;;71.70;26.97;;;;;;;1.56;86.37;99174.11;1774361;79;21170;-83
2021/01/12 08:00:35;;;;;;;54.88;21.97;;;;;;;1.56;86.36;99166.42;1787068;78;21216;-84
2021/01/12 08:03:07;;;;;;;62.30;23.45;;;;;;;1.56;86.39;99153.61;1762858;80;21205;-86
2021/01/12 08:12:15;;;;;;;57.62;23.27;;;;;;;1.62;86.50;99120.37;1756207;76;21691;-89
2021/01/12 08:14:43;;;;;;;58.10;24.52;;;;;;;1.64;86.50;99106.30;1753084;80;21232;-88
2021/01/12 08:17:18;;;;;;;64.32;27.60;;;;;;;1.58;86.14;99099.39;1737746;80;21230;-92
2021/01/12 08:19:51;;;;;;;63.15;25.40;;;;;;;1.63;86.33;99094.31;1716094;81;21330;-90
2021/01/12 08:22:18;;;;;;;65.87;26.15;;;;;;;1.67;86.40;99098.62;1698456;82;21205;-91
2021/01/12 08:24:50;;;;;;;70.97;29.48;;;;;;;1.67;86.23;99095.66;1712367;82;21202;-90
2021/01/12 08:27:22;;;;;;;78.15;29.27;;;;;;;1.65;86.00;99096.07;1724660;80;21583;-84
2021/01/12 08:29:50;;;;;;;80.57;27.37;;;;;;;1.59;85.82;99097.25;1765541;78;21300;-85
2021/01/12 08:32:21;;;;;;;71.90;25.90;;;;;;;1.53;85.82;99095.91;1751055;80;21249;-83
2021/01/12 08:35:09;;;;;;;68.47;27.42;;;;;;;1.47;85.88;99098.41;1737753;77;21293;-83
2021/01/12 08:37:40;;;;;;;72.87;26.75;;;;;;;1.49;86.11;99104.41;1763851;75;21339;-85
2021/01/12 08:43:32;;;;;;;58.65;22.25;;;;;;;1.59;86.20;99117.75;1749688;77;21211;-82
2021/01/12 08:46:03;;;;;;;67.45;25.50;;;;;;;1.62;86.02;99119.52;1732399;77;21331;-81
2021/01/12 08:48:31;;;;;;;71.35;27.00;;;;;;;1.68;86.35;99126.84;1752682;80;21272;-86
2021/01/12 08:51:00;;;;;;;72.25;29.37;;;;;;;1.74;86.12;99129.47;1739656;77;21340;-83
2021/01/12 08:53:31;;;;;;;88.82;36.33;;;;;;;1.86;86.25;99130.45;1717894;79;21182;-91
2021/01/12 08:56:08;;;;;;;86.80;35.55;;;;;;;1.91;85.98;99128.78;1756353;79;21186;-90
2021/01/12 08:58:37;;;;;;;94.15;37.48;;;;;;;1.97;86.11;99121.18;1725960;78;21588;-90
2021/01/12 09:01:09;;;;;;;70.00;27.98;;;;;;;2.04;85.98;99117.81;1735604;78;21217;-91
2021/01/12 09:03:42;;;;;;;66.77;28.60;;;;;;;2.04;85.31;99110.55;1684095;78;21432;-90
2021/01/12 09:06:19;;;;;;;71.67;28.73;;;;;;;1.99;85.00;99105.38;1694455;81;21221;-90
2021/01/12 09:08:47;;;;;;;68.33;29.40;;;;;;;1.99;85.22;99095.98;1745074;79;21167;-91
2021/01/12 09:11:16;;;;;;;55.38;21.65;;;;;;;1.98;84.96;99092.11;1735555;78;21170;-88
2021/01/12 09:13:45;;;;;;;49.25;19.50;;;;;;;1.96;84.78;99098.93;1807259;77;22354;-84
2021/01/12 09:16:19;;;;;;;50.75;18.67;;;;;;;1.88;84.69;99100.56;1808364;77;21313;-86
2021/01/12 09:18:47;;;;;;;46.83;19.70;;;;;;;1.86;84.83;99095.41;1710904;78;21210;-84
2021/01/12 09:21:17;;;;;;;55.38;21.73;;;;;;;1.82;84.70;99094.09;1678084;83;21228;-86
2021/01/12 09:23:45;;;;;;;91.20;36.40;;;;;;;1.90;85.39;99086.91;1697020;82;21148;-84
2021/01/12 09:26:12;;;;;;;59.48;24.50;;;;;;;1.88;84.75;99092.88;1722686;81;21374;-87
2021/01/12 09:28:40;;;;;;;72.45;27.58;;;;;;;1.97;85.10;99086.13;1730475;80;21158;-82
2021/01/12 09:34:03;;;;;;;68.62;27.93;;;;;;;2.14;85.35;99071.31;1724448;82;21341;-89
2021/01/12 09:36:32;;;;;;;81.45;34.18;;;;;;;2.20;84.64;99067.51;1706724;82;21207;-90
2021/01/12 09:39:12;;;;;;;71.15;31.35;;;;;;;2.36;85.30;99062.07;1746906;77;21164;-90
2021/01/12 09:41:41;;;;;;;79.35;35.70;;;;;;;2.52;85.08;99057.91;1712647;81;21296;-84
2021/01/12 09:44:10;;;;;;;87.27;38.25;;;;;;;2.64;84.28;99050.28;1694798;78;21306;-89
2021/01/12 09:46:37;;;;;;;74.35;32.78;;;;;;;2.79;84.49;99053.38;1785364;76;21346;-92
2021/01/12 09:49:06;;;;;;;87.60;38.10;;;;;;;2.91;84.37;99040.59;1756057;77;21289;-90
2021/01/12 09:51:34;;;;;;;96.57;41.80;;;;;;;3.04;83.62;99038.93;1754397;80;21898;-91
2021/01/12 09:54:01;;;;;;;84.70;38.50;;;;;;;3.11;82.99;99032.13;1715586;81;21205;-88
2021/01/12 09:56:29;;;;;;;79.47;33.33;;;;;;;3.17;82.93;99029.58;1719937;80;21205;-92
2021/01/12 09:58:57;;;;;;;90.65;40.30;;;;;;;3.19;82.36;99021.45;1724842;80;21481;-92
2021/01/12 10:01:25;;;;;;;80.47;34.25;;;;;;;3.09;80.99;99012.00;1719996;78;21362;-90
2021/01/12 10:03:54;;;;;;;88.12;36.80;;;;;;;3.19;81.83;99010.73;1727417;82;21197;-91
2021/01/12 10:06:22;;;;;;;71.02;27.25;;;;;;;3.31;82.06;99005.22;1776789;79;21346;-91
2021/01/12 10:08:51;;;;;;;70.70;30.45;;;;;;;3.42;81.58;99000.09;1762789;78;21724;-91
2021/01/12 10:11:20;;;;;;;60.88;26.25;;;;;;;3.34;81.08;98989.39;1739487;79;21202;-92
2021/01/12 10:13:49;;;;;;;63.78;30.95;;;;;;;3.43;80.98;98978.69;1679311;80;21187;-91
2021/01/12 10:16:24;;;;;;;61.28;28.95;;;;;;;3.47;80.17;98966.27;1728023;79;21304;-90
2021/01/12 10:18:53;;;;;;;70.12;32.60;;;;;;;3.49;78.99;98973.13;1796616;77;21113;-85
2021/01/12 10:21:25;;;;;;;58.20;25.40;;;;;;;3.55;79.56;98970.99;1694167;82;21176;-90
2021/01/12 10:23:56;;;;;;;60.95;26.17;;;;;;;3.57;79.55;98967.99;1655896;85;21228;-91
2021/01/12 10:26:24;;;;;;;68.07;29.10;;;;;;;3.50;78.59;98963.28;1677600;78;21281;-90
2021/01/12 10:28:52;;;;;;;55.55;24.35;;;;;;;3.58;79.18;98963.27;1681772;83;21324;-91
2021/01/12 10:31:21;;;;;;;57.58;24.45;;;;;;;3.66;79.97;98951.30;1724935;81;21260;-92
2021/01/12 10:33:50;;;;;;;55.88;22.17;;;;;;;3.56;79.14;98946.98;1667202;83;21223;-91
2021/01/12 10:36:21;;;;;;;52.65;21.48;;;;;;;3.49;79.40;98942.71;1712785;78;21300;-91
2021/01/12 10:38:49;;;;;;;52.80;22.02;;;;;;;3.40;78.52;98944.83;1752559;79;21333;-90
2021/01/12 10:41:18;;;;;;;57.98;22.65;;;;;;;3.43;80.51;98937.13;1794203;77;21299;-92
2021/01/12 10:43:50;;;;;;;53.23;20.75;;;;;;;3.39;78.88;98940.56;1804047;77;21194;-89
2021/01/12 10:46:18;;;;;;;49.60;19.92;;;;;;;3.46;79.02;98937.16;1738081;77;21189;-92
2021/01/12 10:48:45;;;;;;;45.98;18.12;;;;;;;3.44;78.26;98931.55;1700312;79;21262;-88
2021/01/12 10:51:19;;;;;;;44.25;20.43;;;;;;;3.42;78.36;98925.56;1725056;82;21297;-90
2021/01/12 10:53:48;;;;;;;70.15;27.17;;;;;;;3.38;78.75;98923.41;1707870;76;21210;-91
2021/01/12 10:56:16;;;;;;;44.23;20.32;;;;;;;3.47;79.42;98916.16;1707942;79;21344;-86
2021/01/12 10:58:44;;;;;;;59.27;22.27;;;;;;;3.49;79.39;98910.59;1773915;76;21304;-84
2021/01/12 11:01:16;;;;;;;82.67;30.57;;;;;;;3.38;78.65;98901.16;1684404;80;21336;-86
2021/01/12 11:03:45;;;;;;;43.50;19.15;;;;;;;3.46;79.23;98899.00;1779079;77;21267;-91
2021/01/12 11:06:14;;;;;;;197.37;60.25;;;;;;;3.50;77.92;98893.01;1788593;76;21178;-92
2021/01/12 11:08:44;;;;;;;121.67;40.63;;;;;;;3.39;77.88;98894.30;1752940;79;21333;-93
2021/01/12 11:11:20;;;;;;;67.78;27.32;;;;;;;3.48;79.29;98893.44;1752502;79;21953;-91
2021/01/12 11:13:56;;;;;;;49.98;23.05;;;;;;;3.44;78.64;98898.15;1743360;81;21186;-91
2021/01/12 11:16:22;;;;;;;38.65;18.57;;;;;;;3.37;78.91;98894.30;1755680;78;21393;-92
2021/01/12 11:18:51;;;;;;;40.43;15.98;;;;;;;3.41;79.47;98894.31;1748379;79;21297;-92
2021/01/12 11:21:19;;;;;;;41.77;18.57;;;;;;;3.21;77.72;98884.86;1767633;79;21211;-93
2021/01/12 11:23:48;;;;;;;43.50;19.70;;;;;;;3.26;78.24;98880.57;1747486;80;21186;-93
2021/01/12 11:26:16;;;;;;;39.48;15.88;;;;;;;3.27;78.69;98881.02;1788234;79;21329;-91
2021/01/12 11:28:44;;;;;;;41.50;16.50;;;;;;;3.21;78.85;98874.59;1769127;79;21219;-92
2021/01/12 11:31:18;;;;;;;50.95;21.35;;;;;;;3.15;78.87;98871.58;1777783;78;21912;-91
2021/01/12 11:33:49;;;;;;;41.83;17.55;;;;;;;3.20;78.95;98865.16;1758412;79;21168;-89
2021/01/12 11:36:17;;;;;;;45.88;18.57;;;;;;;3.32;79.74;98854.02;1756093;79;21196;-89
2021/01/12 11:38:45;;;;;;;43.30;19.37;;;;;;;3.25;78.49;98851.05;1751243;80;21718;-91
2021/01/12 11:41:13;;;;;;;50.35;20.57;;;;;;;3.26;79.45;98843.31;1769280;80;21310;-92
2021/01/12 11:43:41;;;;;;;45.17;19.27;;;;;;;3.21;79.17;98838.62;1755678;78;21279;-91
2021/01/12 11:46:09;;;;;;;54.03;23.67;;;;;;;3.23;79.53;98831.77;1767699;79;21206;-92
2021/01/12 11:48:37;;;;;;;52.15;22.70;;;;;;;3.21;79.72;98829.63;1753704;79;21288;-90
2021/01/12 11:51:05;;;;;;;46.75;20.80;;;;;;;3.23;79.96;98825.34;1778283;78;21291;-91
2021/01/12 11:53:33;;;;;;;58.58;24.57;;;;;;;3.19;79.20;98827.05;1806169;77;21316;-90
2021/01/12 11:56:02;;;;;;;59.27;25.02;;;;;;;3.10;79.09;98827.47;1825946;77;21311;-90
2021/01/12 11:58:29;;;;;;;55.30;23.32;;;;;;;3.14;79.51;98830.06;1802224;78;21203;-89
2021/01/12 12:00:58;;;;;;;61.60;25.10;;;;;;;3.06;79.15;98820.19;1800233;78;21126;-91
2021/01/12 12:03:26;;;;;;;69.97;28.62;;;;;;;3.05;79.21;98813.79;1808590;77;21148;-90
2021/01/12 12:05:53;;;;;;;70.60;29.87;;;;;;;3.07;79.50;98802.66;1810620;77;21168;-90
2021/01/12 12:08:22;;;;;;;64.67;26.33;;;;;;;2.97;78.78;98800.50;1814536;77;21124;-90
2021/01/12 12:10:50;;;;;;;54.08;24.95;;;;;;;2.96;79.47;98791.11;1800304;77;21141;-91
2021/01/12 12:13:18;;;;;;;54.85;24.60;;;;;;;3.06;80.00;98783.38;1807067;77;21260;-90
2021/01/12 12:15:49;;;;;;;56.23;24.32;;;;;;;3.14;79.96;98777.81;1810800;77;21283;-91
2021/01/12 12:18:18;;;;;;;53.65;22.60;;;;;;;3.19;79.78;98778.68;1798312;76;21267;-90
2021/01/12 12:20:46;;;;;;;51.20;22.62;;;;;;;3.27;80.02;98784.66;1788889;78;21170;-94
2021/01/12 12:23:14;;;;;;;56.73;24.50;;;;;;;3.32;79.76;98774.37;1792793;78;21151;-93
2021/01/12 12:25:42;;;;;;;54.80;24.37;;;;;;;3.36;79.83;98772.22;1811521;78;21783;-93
2021/01/12 12:28:10;;;;;;;47.27;20.92;;;;;;;3.41;79.33;98776.09;1751835;79;21331;-94
2021/01/12 12:30:38;;;;;;;58.02;22.25;;;;;;;3.40;78.91;98777.78;1804290;78;21304;-90
2021/01/12 12:33:06;;;;;;;39.38;17.20;;;;;;;3.38;78.97;98782.08;1801433;78;22010;-92
2021/01/12 12:35:34;;;;;;;47.08;18.00;;;;;;;3.35;78.84;98782.94;1744254;78;21601;-92
2021/01/12 12:44:36;;;;;;;42.88;17.92;;;;;;;3.34;79.09;98779.08;1777942;75;21209;-85
2021/01/12 21:44:01;;;;;;;69.17;23.87;;;;;;;1.07;89.59;98489.44;1727422;81;21126;-82
2021/01/12 21:49:56;;;;;;;;;;;;;;;1.09;89.07;98486.46;1812870;79;21074;-82
2021/01/12 21:55:54;;;;;;;65.60;21.37;;;;;;;1.06;89.02;98472.39;1805796;79;21026;-83
2021/01/12 21:58:26;;;;;;;72.25;22.85;;;;;;;0.99;89.65;98469.37;1787430;79;21232;-83
2021/01/12 22:00:54;;;;;;;70.50;24.40;;;;;;;1.04;88.81;98473.24;1783964;79;21237;-82
2021/01/12 22:06:48;;;;;;;70.15;23.60;;;;;;;1.06;89.41;98467.70;1791985;79;21350;-83
2021/01/12 22:09:23;;;;;;;73.72;23.12;;;;;;;1.02;89.93;98455.74;1810400;79;21237;-83
2021/01/12 22:11:51;;;;;;;64.22;21.57;;;;;;;1.04;89.68;98456.60;1819078;78;21134;-83
2021/01/12 23:42:38;;;;;;;59.30;20.50;;;;;;;0.83;89.98;98358.85;1806085;76;21558;31
